Terminal Aerodrome Forecast
Issued by NWS

Home | Current Version | Previous Version | Text Only | Print | Product List | Glossary On
Versions: 1 2 3 4 5 6 7 8 9 10 11 12 13 14 15 16 17 18 19 20 21 22 23 24 25 26 27 28
000
FTUS45 KGJT 310320 AAA
TAFRIL
TAF AMD
KRIL 310320Z 3103/3124 27015KT P6SM -RA VCTS BKN100CB OVC110
      TEMPO 3103/3105 VRB20G40KT 5SM -TSRA
     FM310600 VRB03KT P6SM VCSH SCT060 BKN090
     FM311200 VRB03KT P6SM SCT120 BKN200
     FM311800 27008KT P6SM SCT200=

USA.gov is the U.S. government's official web portal to all federal, state and local government web resources and services.